createdAt,value
2022-12-25T00:00:26.666Z,4.21
2022-12-25T00:03:33.051Z,4.14
2022-12-25T00:06:41.327Z,4.08
2022-12-25T00:09:47.556Z,4.00
2022-12-25T00:12:53.861Z,3.93
2022-12-25T00:16:00.710Z,3.89
2022-12-25T00:19:06.300Z,3.85
2022-12-25T00:22:15.376Z,3.83
2022-12-25T00:25:20.960Z,3.77
2022-12-25T00:28:28.405Z,3.76
2022-12-25T00:31:34.876Z,3.77
2022-12-25T00:34:41.365Z,3.73
2022-12-25T00:37:49.538Z,3.88
2022-12-25T00:40:56.012Z,3.93
2022-12-25T00:44:01.732Z,3.93
2022-12-25T00:47:08.082Z,3.97
2022-12-25T00:50:14.419Z,4.01
2022-12-25T00:53:23.402Z,4.02
2022-12-25T00:56:29.120Z,4.04
2022-12-25T00:59:36.943Z,4.08
2022-12-25T01:02:42.442Z,4.14
2022-12-25T01:05:59.544Z,4.17
2022-12-25T01:09:25.976Z,4.21
2022-12-25T01:12:33.830Z,4.27
2022-12-25T01:15:40.222Z,4.32
2022-12-25T01:18:46.883Z,4.31
2022-12-25T01:21:52.249Z,4.30
2022-12-25T01:25:01.638Z,4.32
2022-12-25T01:28:07.472Z,4.24
2022-12-25T01:31:17.443Z,4.26
2022-12-25T01:34:23.307Z,4.30
2022-12-25T01:37:29.891Z,4.31
2022-12-25T01:40:40.127Z,4.23
2022-12-25T01:44:08.995Z,4.25
2022-12-25T01:47:15.559Z,4.23
2022-12-25T01:50:23.884Z,4.20
2022-12-25T01:53:30.621Z,4.21
2022-12-25T01:56:46.519Z,4.27
2022-12-25T01:59:53.004Z,4.38
2022-12-25T02:03:01.220Z,4.45
2022-12-25T02:06:07.979Z,4.50
2022-12-25T02:09:14.632Z,4.52
2022-12-25T02:12:28.765Z,4.17
2022-12-25T02:15:53.000Z,4.62
2022-12-25T02:19:12.369Z,4.61
2022-12-25T02:22:41.397Z,4.57
2022-12-25T02:26:17.549Z,4.58
2022-12-25T02:29:36.611Z,4.60
2022-12-25T02:33:18.906Z,4.53
2022-12-25T02:36:32.143Z,4.55
2022-12-25T02:40:01.233Z,4.58
2022-12-25T02:43:34.388Z,4.54
2022-12-25T02:46:59.380Z,4.51
2022-12-25T02:50:25.111Z,4.45
2022-12-25T02:53:56.168Z,4.43
2022-12-25T02:57:25.032Z,4.46
2022-12-25T03:00:48.631Z,4.48
2022-12-25T03:04:18.519Z,4.49
2022-12-25T03:07:29.929Z,4.47
2022-12-25T03:10:58.885Z,4.46
2022-12-25T03:14:22.658Z,4.41
2022-12-25T03:17:30.574Z,4.42
2022-12-25T03:20:57.009Z,4.41
2022-12-25T03:24:17.522Z,4.48
2022-12-25T03:27:23.764Z,4.54
2022-12-25T03:30:56.792Z,4.46
2022-12-25T03:34:45.421Z,4.51
2022-12-25T03:38:40.187Z,4.38
2022-12-25T03:42:09.308Z,4.34
2022-12-25T03:45:44.724Z,4.22
2022-12-25T03:49:18.866Z,4.19
2022-12-25T03:52:41.878Z,4.23
2022-12-25T03:56:09.957Z,4.27
2022-12-25T03:59:31.749Z,4.27
2022-12-25T04:02:55.721Z,4.37
2022-12-25T04:06:17.263Z,4.44
2022-12-25T04:09:39.756Z,4.39
2022-12-25T04:13:04.014Z,4.38
2022-12-25T04:16:27.173Z,4.38
2022-12-25T04:19:48.437Z,4.43
2022-12-25T04:23:10.576Z,4.50
2022-12-25T04:26:46.491Z,4.53
2022-12-25T04:30:10.152Z,4.56
2022-12-25T04:33:30.987Z,4.53
2022-12-25T04:36:37.275Z,4.51
2022-12-25T04:39:42.701Z,4.48
2022-12-25T04:42:49.048Z,4.47
2022-12-25T04:46:00.647Z,4.40
2022-12-25T04:49:06.950Z,4.41
2022-12-25T04:52:12.472Z,4.43
2022-12-25T04:55:18.754Z,4.45
2022-12-25T04:58:24.178Z,4.43
2022-12-25T05:01:33.297Z,4.40
2022-12-25T05:04:38.722Z,4.43
2022-12-25T05:07:44.927Z,4.44
2022-12-25T05:10:50.970Z,4.42
2022-12-25T05:13:57.454Z,4.41
2022-12-25T05:17:05.708Z,4.43
2022-12-25T05:20:12.248Z,4.35
2022-12-25T05:23:17.612Z,4.29
2022-12-25T05:26:27.253Z,4.30
2022-12-25T05:29:32.579Z,4.32
2022-12-25T05:32:41.716Z,4.31
2022-12-25T05:35:47.096Z,4.23
2022-12-25T05:38:54.315Z,4.19
2022-12-25T05:41:59.785Z,4.05
2022-12-25T05:45:06.503Z,4.00
2022-12-25T05:48:15.377Z,3.95
2022-12-25T05:51:21.679Z,3.91
2022-12-25T05:54:27.098Z,3.87
2022-12-25T05:57:34.445Z,3.83
2022-12-25T06:00:40.935Z,3.76
2022-12-25T06:03:50.433Z,3.72
2022-12-25T06:06:56.851Z,3.56
2022-12-25T06:10:03.363Z,3.50
2022-12-25T06:13:08.927Z,3.51
2022-12-25T06:16:15.957Z,3.48
2022-12-25T06:19:24.724Z,3.42
2022-12-25T06:22:32.446Z,3.34
2022-12-25T06:25:37.931Z,3.24
2022-12-25T06:28:45.053Z,3.23
2022-12-25T06:31:50.627Z,3.25
2022-12-25T06:34:59.884Z,3.28
2022-12-25T06:38:05.293Z,3.22
2022-12-25T06:41:14.890Z,3.22
2022-12-25T06:44:20.496Z,3.19
2022-12-25T06:47:27.106Z,3.14
2022-12-25T06:50:37.436Z,3.11
2022-12-25T06:53:43.664Z,3.05
2022-12-25T06:56:49.980Z,2.96
2022-12-25T06:59:56.476Z,2.87
2022-12-25T07:03:02.447Z,2.81
2022-12-25T07:06:12.531Z,2.80
2022-12-25T07:09:18.129Z,2.76
2022-12-25T07:12:27.657Z,2.73
2022-12-25T07:15:33.050Z,2.71
2022-12-25T07:18:39.496Z,2.68
2022-12-25T07:21:47.689Z,2.65
2022-12-25T07:24:53.909Z,2.66
2022-12-25T07:27:59.492Z,2.65
2022-12-25T07:31:07.790Z,2.60
2022-12-25T07:34:13.379Z,2.60
2022-12-25T07:37:22.386Z,2.55
2022-12-25T07:40:27.851Z,2.49
2022-12-25T07:43:34.102Z,2.45
2022-12-25T07:46:39.509Z,2.44
2022-12-25T07:49:45.765Z,2.43
2022-12-25T07:52:53.904Z,2.43
2022-12-25T07:56:02.835Z,2.44
2022-12-25T07:59:08.184Z,2.47
2022-12-25T08:02:14.710Z,2.49
2022-12-25T08:05:20.740Z,2.55
2022-12-25T08:08:29.990Z,2.55
2022-12-25T08:11:36.521Z,2.70
2022-12-25T08:14:42.836Z,2.78
2022-12-25T08:17:48.302Z,2.87
2022-12-25T08:20:54.557Z,3.00
2022-12-25T08:24:03.323Z,3.14
2022-12-25T08:27:09.551Z,3.25
2022-12-25T08:30:15.779Z,3.36
2022-12-25T08:33:22.118Z,3.43
2022-12-25T08:36:28.596Z,3.52
2022-12-25T08:39:37.668Z,3.63
2022-12-25T08:42:43.073Z,3.68
2022-12-25T08:45:50.556Z,3.76
2022-12-25T08:48:56.912Z,3.83
2022-12-25T08:52:03.164Z,3.81
2022-12-25T08:55:12.335Z,3.87
2022-12-25T08:58:19.265Z,3.86
2022-12-25T09:01:24.867Z,3.85
2022-12-25T09:04:31.817Z,3.85
2022-12-25T09:07:37.180Z,3.83
2022-12-25T09:10:46.457Z,3.82
2022-12-25T09:13:52.642Z,3.86
2022-12-25T09:16:58.893Z,3.93
2022-12-25T09:20:04.339Z,3.94
2022-12-25T09:23:14.097Z,3.93
2022-12-25T09:26:23.283Z,3.90
2022-12-25T09:29:29.559Z,3.90
2022-12-25T09:32:35.854Z,3.88
2022-12-25T09:35:42.171Z,3.91
2022-12-25T09:38:47.672Z,3.86
2022-12-25T09:42:05.060Z,4.02
2022-12-25T09:45:21.043Z,4.12
2022-12-25T09:48:31.332Z,4.24
2022-12-25T09:51:43.588Z,4.38
2022-12-25T09:55:01.082Z,4.42
2022-12-25T09:58:16.027Z,4.50
2022-12-25T10:01:42.220Z,4.59
2022-12-25T10:05:14.972Z,4.69
2022-12-25T10:09:10.090Z,4.79
2022-12-25T10:12:41.743Z,4.90
2022-12-25T10:16:10.770Z,4.98
2022-12-25T10:19:37.416Z,5.09
2022-12-25T10:22:49.893Z,5.17
2022-12-25T10:25:57.434Z,5.22
2022-12-25T10:29:16.516Z,5.27
2022-12-25T10:32:25.015Z,5.33
2022-12-25T10:35:33.823Z,5.39
2022-12-25T10:38:39.660Z,5.42
2022-12-25T10:42:11.468Z,5.44
2022-12-25T10:45:17.554Z,5.48
2022-12-25T10:48:33.007Z,5.55
2022-12-25T10:51:41.787Z,5.56
2022-12-25T10:54:48.100Z,5.59
2022-12-25T10:57:54.499Z,5.58
2022-12-25T11:01:08.862Z,5.64
2022-12-25T11:04:23.925Z,5.59
2022-12-25T11:07:30.919Z,5.69
2022-12-25T11:10:42.380Z,5.69
2022-12-25T11:13:55.691Z,5.73
2022-12-25T11:17:12.327Z,5.75
2022-12-25T11:20:24.732Z,5.80
2022-12-25T11:23:34.431Z,5.81
2022-12-25T11:26:52.218Z,5.74
2022-12-25T11:30:04.808Z,5.74
2022-12-25T11:33:17.612Z,5.71
2022-12-25T11:36:35.882Z,5.73
2022-12-25T11:39:45.424Z,5.79
2022-12-25T11:43:04.118Z,5.83
2022-12-25T11:46:24.091Z,5.85
2022-12-25T11:49:30.665Z,5.88
2022-12-25T11:52:47.445Z,5.92
2022-12-25T11:55:59.473Z,5.97
2022-12-25T11:59:19.568Z,6.06
2022-12-25T12:02:36.645Z,6.11
2022-12-25T12:05:52.658Z,6.14
2022-12-25T12:09:33.289Z,6.16
2022-12-25T12:12:54.566Z,6.15
2022-12-25T12:16:00.813Z,6.13
2022-12-25T12:19:17.348Z,6.14
2022-12-25T12:22:27.241Z,6.15
2022-12-25T12:25:44.148Z,6.19
2022-12-25T12:28:54.197Z,6.05
2022-12-25T12:32:06.990Z,6.20
2022-12-25T12:35:21.885Z,6.20
2022-12-25T12:38:29.042Z,6.25
2022-12-25T12:41:51.199Z,6.27
2022-12-25T12:45:09.755Z,6.30
2022-12-25T12:48:20.096Z,6.36
2022-12-25T12:51:40.238Z,6.40
2022-12-25T12:55:03.141Z,6.43
2022-12-25T12:58:33.940Z,6.44
2022-12-25T13:01:57.668Z,6.48
2022-12-25T13:05:11.239Z,6.50
2022-12-25T13:08:38.215Z,6.51
2022-12-25T13:11:49.824Z,6.46
2022-12-25T13:14:58.357Z,6.43
2022-12-25T13:18:09.782Z,6.41
2022-12-25T13:21:25.327Z,6.39
2022-12-25T13:24:35.131Z,6.36
2022-12-25T13:27:40.589Z,6.37
2022-12-25T13:30:49.987Z,6.35
2022-12-25T13:34:02.859Z,6.32
2022-12-25T13:37:13.387Z,6.30
2022-12-25T13:40:31.327Z,6.32
2022-12-25T13:43:35.051Z,6.30
2022-12-25T13:46:43.463Z,6.30
2022-12-25T13:49:51.363Z,6.31
2022-12-25T13:52:59.824Z,5.34
2022-12-25T13:56:06.488Z,6.32
2022-12-25T13:59:21.896Z,6.30
2022-12-25T14:02:38.423Z,6.23
2022-12-25T14:05:43.971Z,6.20
2022-12-25T14:08:52.803Z,6.20
2022-12-25T14:11:58.575Z,6.20
2022-12-25T14:15:07.885Z,6.17
2022-12-25T14:18:22.430Z,5.99
2022-12-25T14:21:35.908Z,6.12
2022-12-25T14:24:43.765Z,6.08
2022-12-25T14:27:55.275Z,6.01
2022-12-25T14:31:02.504Z,6.04
2022-12-25T14:34:22.146Z,6.01
2022-12-25T14:37:32.718Z,5.98
2022-12-25T14:40:39.087Z,5.89
2022-12-25T14:43:56.189Z,5.90
2022-12-25T14:47:20.900Z,5.83
2022-12-25T14:50:39.950Z,5.79
2022-12-25T14:53:54.822Z,5.75
2022-12-25T14:57:00.482Z,5.68
2022-12-25T15:00:23.666Z,5.64
2022-12-25T15:03:34.221Z,5.63
2022-12-25T15:06:55.210Z,5.60
2022-12-25T15:10:36.487Z,5.53
2022-12-25T15:13:29.190Z,5.47
2022-12-25T15:16:44.851Z,5.39
2022-12-25T15:19:51.380Z,5.34
2022-12-25T15:23:18.937Z,5.25
2022-12-25T15:26:25.815Z,5.23
2022-12-25T15:30:09.218Z,5.18
2022-12-25T15:32:57.761Z,5.12
2022-12-25T15:36:03.230Z,5.10
2022-12-25T15:39:12.277Z,5.09
2022-12-25T15:42:21.074Z,5.09
2022-12-25T15:45:32.465Z,5.09
2022-12-25T15:48:37.956Z,5.07
2022-12-25T15:51:46.131Z,5.06
2022-12-25T15:54:54.438Z,5.01
2022-12-25T15:58:00.968Z,4.98
2022-12-25T16:01:06.803Z,4.95
2022-12-25T16:04:12.996Z,4.91
2022-12-25T16:07:23.298Z,4.89
2022-12-25T16:10:38.407Z,4.83
2022-12-25T16:13:44.512Z,4.76
2022-12-25T16:16:50.855Z,4.67
2022-12-25T16:19:56.501Z,4.63
2022-12-25T16:23:02.703Z,4.61
2022-12-25T16:26:10.987Z,4.60
2022-12-25T16:29:17.514Z,4.57
2022-12-25T16:32:23.178Z,4.56
2022-12-25T16:35:29.497Z,4.56
2022-12-25T16:38:34.908Z,4.55
2022-12-25T16:41:44.150Z,4.46
2022-12-25T16:44:49.614Z,4.50
2022-12-25T16:47:55.868Z,4.49
2022-12-25T16:51:01.290Z,4.48
2022-12-25T16:54:08.580Z,4.46
2022-12-25T16:57:17.118Z,4.48
2022-12-25T17:00:24.686Z,4.49
2022-12-25T17:03:30.896Z,4.46
2022-12-25T17:06:37.297Z,4.45
2022-12-25T17:09:44.490Z,4.46
2022-12-25T17:12:53.664Z,4.45
2022-12-25T17:15:59.355Z,4.44
2022-12-25T17:19:12.118Z,4.44
2022-12-25T17:22:17.575Z,4.45
2022-12-25T17:25:23.890Z,4.43
2022-12-25T17:28:32.328Z,4.51
2022-12-25T17:31:38.678Z,4.54
2022-12-25T17:34:44.325Z,4.57
2022-12-25T17:37:50.609Z,4.60
2022-12-25T17:40:59.544Z,4.49
2022-12-25T17:44:08.819Z,4.65
2022-12-25T17:47:14.226Z,4.60
2022-12-25T17:50:20.616Z,4.55
2022-12-25T17:53:26.027Z,4.48
2022-12-25T17:56:33.197Z,4.43
2022-12-25T17:59:41.434Z,4.38
2022-12-25T18:02:48.027Z,4.34
2022-12-25T18:05:53.586Z,4.29
2022-12-25T18:09:01.901Z,4.28
2022-12-25T18:12:08.399Z,4.28
2022-12-25T18:15:17.630Z,4.27
2022-12-25T18:18:23.064Z,4.25
2022-12-25T18:21:30.510Z,4.23
2022-12-25T18:24:36.150Z,4.22
2022-12-25T18:27:43.486Z,4.21
2022-12-25T18:30:53.086Z,4.04
2022-12-25T18:34:25.430Z,4.14
2022-12-25T18:41:31.141Z,4.23
2022-12-25T18:44:39.248Z,4.25
2022-12-25T18:47:49.718Z,4.22
2022-12-25T18:51:02.512Z,4.33
2022-12-25T18:54:11.223Z,4.32
2022-12-25T18:57:18.131Z,4.30
2022-12-25T19:00:24.662Z,4.25
2022-12-25T19:03:33.141Z,4.13
2022-12-25T19:06:39.680Z,4.15
2022-12-25T19:09:45.280Z,4.12
2022-12-25T19:12:51.780Z,4.14
2022-12-25T19:16:02.223Z,4.19
2022-12-25T19:19:12.949Z,4.19
2022-12-25T19:22:18.565Z,4.20
2022-12-25T19:25:24.794Z,4.20
2022-12-25T19:28:30.393Z,4.17
2022-12-25T19:31:38.330Z,4.15
2022-12-25T19:34:46.580Z,4.14
2022-12-25T19:37:52.982Z,4.18
2022-12-25T19:41:04.578Z,4.22
2022-12-25T19:44:11.385Z,4.27
2022-12-25T19:47:16.859Z,4.32
2022-12-25T19:50:28.674Z,4.40
2022-12-25T19:53:34.629Z,4.50
2022-12-25T19:56:41.223Z,4.61
2022-12-25T19:59:46.612Z,4.70
2022-12-25T20:02:53.092Z,4.68
2022-12-25T20:06:01.420Z,4.65
2022-12-25T20:09:11.153Z,4.59
2022-12-25T20:12:16.738Z,4.52
2022-12-25T20:15:23.657Z,4.45
2022-12-25T20:18:29.124Z,4.37
2022-12-25T20:21:38.545Z,4.29
2022-12-25T20:24:43.955Z,4.26
2022-12-25T20:27:50.853Z,4.25
2022-12-25T20:30:59.590Z,4.28
2022-12-25T20:34:11.090Z,4.35
2022-12-25T20:37:19.524Z,4.35
2022-12-25T20:40:25.884Z,4.46
2022-12-25T20:43:32.373Z,4.39
2022-12-25T20:46:38.720Z,4.56
2022-12-25T20:49:44.290Z,4.57
2022-12-25T20:52:56.972Z,4.58
2022-12-25T20:56:02.688Z,4.58
2022-12-25T20:59:09.008Z,4.52
2022-12-25T21:02:34.620Z,4.48
2022-12-25T21:05:49.970Z,4.43
2022-12-25T21:08:58.396Z,4.41
2022-12-25T21:12:04.688Z,4.42
2022-12-25T21:15:15.324Z,4.41
2022-12-25T21:18:27.289Z,4.38
2022-12-25T21:21:32.714Z,4.41
2022-12-25T21:24:42.004Z,4.39
2022-12-25T21:27:47.409Z,4.38
2022-12-25T21:30:53.932Z,4.40
2022-12-25T21:33:58.169Z,4.43
2022-12-25T21:37:04.670Z,4.44
2022-12-25T21:40:16.616Z,4.36
2022-12-25T21:43:22.964Z,4.39
2022-12-25T21:46:33.250Z,4.41
2022-12-25T21:49:54.967Z,4.42
2022-12-25T21:53:01.105Z,4.42
2022-12-25T21:56:10.845Z,4.39
2022-12-25T21:59:20.544Z,3.93
2022-12-25T22:02:27.339Z,4.25
2022-12-25T22:05:45.879Z,4.18
2022-12-25T22:08:52.133Z,4.09
2022-12-25T22:12:16.600Z,4.02
2022-12-25T22:15:23.225Z,3.96
2022-12-25T22:18:44.488Z,3.96
2022-12-25T22:21:50.704Z,3.95
2022-12-25T22:25:01.301Z,3.93
2022-12-25T22:28:10.535Z,3.92
2022-12-25T22:31:16.004Z,3.91
2022-12-25T22:34:22.289Z,3.90
2022-12-25T22:37:27.779Z,3.86
2022-12-25T22:40:34.611Z,3.85
2022-12-25T22:44:16.042Z,3.76
2022-12-25T22:47:09.142Z,3.59
2022-12-25T22:50:16.546Z,3.69
2022-12-25T22:53:23.503Z,3.65
2022-12-25T22:56:28.916Z,3.62
2022-12-25T22:59:37.972Z,3.59
2022-12-25T23:02:44.430Z,3.61
2022-12-25T23:05:57.728Z,3.66
2022-12-25T23:09:04.542Z,3.67
2022-12-25T23:12:31.071Z,3.70
2022-12-25T23:15:36.724Z,3.76
2022-12-25T23:18:58.867Z,3.80
2022-12-25T23:22:20.412Z,3.90
2022-12-25T23:25:42.417Z,3.88
2022-12-25T23:28:59.973Z,3.88
2022-12-25T23:32:13.679Z,3.85
2022-12-25T23:35:19.256Z,3.80
2022-12-25T23:38:25.576Z,3.77
2022-12-25T23:41:31.116Z,3.75
2022-12-25T23:44:38.438Z,3.69
2022-12-25T23:47:46.617Z,3.62
2022-12-25T23:50:52.890Z,3.54
2022-12-25T23:53:58.327Z,3.46
2022-12-25T23:57:04.795Z,3.34
